Hankins, New York
Current Conditions -  °F | °C
As of 9:15 PM on Sunday 25 Jan 2015 (Local Time) from KMSV Reporting Station
Clear Clear  
Wind Chill: -14°   Ceiling: Unl
Heat Index: -9°   Visibility: 10mi
Dew Point: -15°   Wind: 7mph
Humidity: 62%   Direction: 330°NNW
Pressure: 29.93"   Gusts: NA
Location:  41.81°N, 75.09°W
Report Text: KMSV 260215Z AUTO 33006KT 10SM CLR M09/M15 A2993 RMK AO1
Loading
Personal Weather Stations






























Interactive Weather Map New forecast layout! Learn more

10-Day Weather Forecast

Advertisements
Track Severe Weather on mobile